Time;durP1;ratioP1;P1;durP2;ratioP2;P2;SDS_P1;SDS_P2;PMS_P1;PMS_P2;Temp;Humidity;BMP_temperature;BMP_pressure;BME280_temperature;BME280_humidity;BME280_pressure;Samples;Min_cycle;Max_cycle;Signal;HPM_P1;HPM_P2
2023/12/29 00:01:21;;;;;;;0.45;0.45;;;;;;;3.46;59.37;100179.53;5306719;27;23451;-93
2023/12/29 00:03:46;;;;;;;1.37;1.27;;;;;;;3.45;59.36;100187.25;5285518;27;20072;-92
2023/12/29 00:06:11;;;;;;;0.20;0.20;;;;;;;3.65;59.38;100175.28;5303095;27;20219;-92
2023/12/29 00:08:37;;;;;;;0.20;0.20;;;;;;;3.32;59.36;100183.78;5303932;27;20072;-95
2023/12/29 00:11:02;;;;;;;2.72;1.42;;;;;;;3.32;59.36;100171.78;5303517;27;20106;-94
2023/12/29 00:13:28;;;;;;;0.43;0.35;;;;;;;3.31;59.36;100172.63;5303991;27;20067;-94
2023/12/29 00:15:54;;;;;;;0.50;0.50;;;;;;;3.42;59.37;100169.22;5306176;27;20052;-94
2023/12/29 00:18:19;;;;;;;0.15;0.15;;;;;;;3.31;59.37;100170.06;5304240;26;20074;-94
2023/12/29 00:20:45;;;;;;;2.58;0.77;;;;;;;3.29;59.35;100166.56;5304165;27;20525;-93
2023/12/29 00:23:11;;;;;;;1.10;0.65;;;;;;;3.21;59.35;100157.97;5304345;27;20724;-94
2023/12/29 00:25:36;;;;;;;1.50;1.40;;;;;;;3.23;59.35;100155.41;5285737;27;20405;-93
2023/12/29 00:28:03;;;;;;;2.33;0.70;;;;;;;3.36;59.36;100144.31;5304108;27;20444;-94
2023/12/29 00:30:29;;;;;;;1.35;1.27;;;;;;;3.47;59.37;100152.06;5304056;27;20128;-93
2023/12/29 00:32:57;;;;;;;1.58;1.02;;;;;;;3.36;59.36;100147.75;5304163;26;20618;-93
2023/12/29 00:35:23;;;;;;;1.00;0.30;;;;;;;3.63;59.38;100151.25;5304325;27;20065;-95
2023/12/29 00:37:49;;;;;;;0.15;0.15;;;;;;;3.49;59.37;100152.94;5305023;27;20104;-94
2023/12/29 00:40:15;;;;;;;0.32;0.32;;;;;;;3.56;59.37;100149.53;5322755;26;20075;-94
2023/12/29 00:42:40;;;;;;;2.08;0.80;;;;;;;3.83;59.38;100148.75;5309386;27;20374;-94
2023/12/29 00:45:06;;;;;;;0.82;0.80;;;;;;;3.67;59.37;100143.56;5305381;27;27853;-94
2023/12/29 00:47:32;;;;;;;0.80;0.80;;;;;;;3.52;59.37;100142.63;5304255;27;20107;-94
2023/12/29 00:49:57;;;;;;;0.00;0.00;;;;;;;3.63;59.38;100144.41;5303896;27;20120;-94
2023/12/29 00:52:22;;;;;;;2.17;1.95;;;;;;;3.48;59.37;100146.94;5303467;27;20095;-95
2023/12/29 00:54:48;;;;;;;0.60;0.50;;;;;;;3.63;59.38;100146.13;5303291;27;23509;-94
2023/12/29 00:57:13;;;;;;;0.03;0.03;;;;;;;3.73;59.38;100137.53;5322324;27;20397;-93
2023/12/29 00:59:39;;;;;;;0.32;0.20;;;;;;;3.82;59.38;100135.00;5305002;26;20152;-94
2023/12/29 01:02:05;;;;;;;0.20;0.20;;;;;;;3.70;59.38;100129.81;5304818;26;20055;-93
2023/12/29 01:04:30;;;;;;;0.68;0.52;;;;;;;3.77;59.39;100136.69;5304026;27;20057;-94
2023/12/29 01:06:56;;;;;;;0.40;0.40;;;;;;;3.90;59.40;100130.72;5303281;27;20433;-94
2023/12/29 01:09:21;;;;;;;0.10;0.10;;;;;;;3.54;59.38;100138.34;5303291;27;20143;-94
2023/12/29 01:11:47;;;;;;;0.28;0.28;;;;;;;3.59;59.38;100149.53;5284571;27;26456;-94
2023/12/29 01:14:13;;;;;;;0.20;0.20;;;;;;;3.59;59.37;100152.13;5303668;27;20417;-94
2023/12/29 01:16:38;;;;;;;0.35;0.35;;;;;;;3.64;59.38;100153.84;5304694;27;20065;-94
2023/12/29 01:19:04;;;;;;;0.90;0.62;;;;;;;3.81;59.38;100150.47;5303251;27;20064;-94
2023/12/29 01:21:33;;;;;;;0.77;0.77;;;;;;;3.79;59.39;100149.59;5303902;26;20060;-93
2023/12/29 01:23:59;;;;;;;1.10;1.10;;;;;;;3.88;59.39;100147.88;5304921;26;20060;-93
2023/12/29 01:26:24;;;;;;;0.52;0.37;;;;;;;3.79;59.39;100132.44;5304143;27;20078;-93
2023/12/29 01:28:50;;;;;;;0.77;0.77;;;;;;;3.78;59.39;100138.41;5303390;27;20383;-92
2023/12/29 01:31:15;;;;;;;3.10;2.05;;;;;;;3.67;59.38;100145.25;5303384;27;20135;-93
2023/12/29 01:33:40;;;;;;;0.37;0.32;;;;;;;3.68;59.38;100142.69;5302928;27;22155;-91
2023/12/29 01:36:06;;;;;;;0.20;0.20;;;;;;;3.72;59.39;100138.41;5321244;27;20394;-91
2023/12/29 01:38:32;;;;;;;0.75;0.65;;;;;;;3.72;59.38;100137.53;5305063;27;20398;-92
2023/12/29 01:40:57;;;;;;;0.32;0.13;;;;;;;3.89;59.39;100134.16;5302758;27;20068;-92
2023/12/29 01:43:22;;;;;;;0.40;0.40;;;;;;;4.01;59.40;100136.72;5303429;27;20091;-91
2023/12/29 01:45:48;;;;;;;0.47;0.47;;;;;;;3.97;59.39;100129.84;5286572;27;32887;-93
2023/12/29 01:48:13;;;;;;;1.77;0.43;;;;;;;4.14;59.41;100118.69;5284651;27;20176;-92
2023/12/29 01:50:40;;;;;;;0.00;0.00;;;;;;;3.92;59.40;100120.41;5302369;27;27494;-92
2023/12/29 01:53:05;;;;;;;0.98;0.98;;;;;;;3.75;59.38;100117.81;5303150;26;20065;-92
2023/12/29 01:55:31;;;;;;;0.50;0.50;;;;;;;3.90;59.40;100112.69;5303688;27;20074;-92
2023/12/29 01:57:56;;;;;;;1.08;1.08;;;;;;;3.74;59.37;100108.37;5302592;27;26232;-92
2023/12/29 02:00:22;;;;;;;3.33;1.52;;;;;;;3.69;59.38;100105.78;5304933;27;20060;-93
2023/12/29 02:02:47;;;;;;;1.08;0.88;;;;;;;3.61;59.38;100106.66;5303018;27;20076;-92
2023/12/29 02:05:13;;;;;;;0.30;0.30;;;;;;;3.87;59.39;100107.53;5302538;27;24889;-93
2023/12/29 02:07:39;;;;;;;0.15;0.13;;;;;;;4.15;59.41;100107.53;5303063;27;20105;-92
2023/12/29 02:10:05;;;;;;;0.93;0.88;;;;;;;3.95;59.39;100099.81;5303064;27;20188;-93
2023/12/29 02:12:31;;;;;;;0.47;0.32;;;;;;;3.91;59.40;100101.53;5303816;27;20418;-93
2023/12/29 02:14:56;;;;;;;3.00;1.25;;;;;;;4.17;59.41;100098.09;5306001;27;20072;-92
2023/12/29 02:17:26;;;;;;;0.20;0.20;;;;;;;4.09;59.40;100102.41;5285696;27;20101;-92
2023/12/29 02:19:51;;;;;;;0.80;0.80;;;;;;;4.10;59.40;100101.53;5304836;26;20128;-92
2023/12/29 02:22:16;;;;;;;0.95;0.90;;;;;;;4.18;59.41;100099.81;5304161;27;20066;-92
2023/12/29 02:24:48;;;;;;;0.77;0.77;;;;;;;4.17;59.41;100088.63;5303768;27;20075;-91
2023/12/29 02:27:29;;;;;;;6.25;1.25;;;;;;;3.87;59.39;100094.66;5303786;27;20113;-91
2023/12/29 02:30:24;;;;;;;0.65;0.65;;;;;;;4.31;59.42;100096.38;5322000;27;20063;-91
2023/12/29 02:32:49;;;;;;;0.77;0.77;;;;;;;4.07;59.40;100094.66;5324301;26;20061;-92
2023/12/29 02:35:18;;;;;;;0.00;0.00;;;;;;;4.08;59.40;100095.53;5303115;27;20075;-91
2023/12/29 02:37:44;;;;;;;0.13;0.13;;;;;;;3.94;59.39;100103.25;5304250;27;20060;-90
2023/12/29 02:40:11;;;;;;;1.75;1.35;;;;;;;3.94;59.39;100091.22;5303682;27;20108;-91
2023/12/29 02:42:36;;;;;;;0.93;0.82;;;;;;;3.99;59.40;100102.38;5304098;27;20072;-92
2023/12/29 02:45:02;;;;;;;0.10;0.10;;;;;;;3.97;59.39;100092.94;5305787;27;20405;-92
2023/12/29 02:47:28;;;;;;;0.70;0.70;;;;;;;3.99;59.40;100086.06;5306732;27;20072;-91
2023/12/29 02:49:54;;;;;;;0.98;0.95;;;;;;;4.36;59.42;100086.91;5303584;27;20120;-91
2023/12/29 02:52:19;;;;;;;0.30;0.30;;;;;;;4.06;59.40;100082.66;5303457;26;20064;-92
2023/12/29 02:54:45;;;;;;;0.20;0.20;;;;;;;3.82;59.38;100091.22;5303002;27;20152;-90
2023/12/29 02:57:11;;;;;;;1.55;1.45;;;;;;;4.29;59.42;100085.22;5303672;27;20109;-91
2023/12/29 02:59:37;;;;;;;1.17;1.15;;;;;;;4.13;59.41;100083.50;5305089;27;20068;-91
2023/12/29 03:02:02;;;;;;;0.65;0.65;;;;;;;4.18;59.41;100085.22;5303286;27;20072;-91
2023/12/29 03:04:28;;;;;;;0.30;0.30;;;;;;;4.12;59.40;100074.06;5284770;27;20056;-92
2023/12/29 03:06:53;;;;;;;1.52;1.42;;;;;;;4.00;59.40;100077.47;5284542;27;21217;-90
2023/12/29 03:09:18;;;;;;;2.97;1.27;;;;;;;4.07;59.40;100074.06;5320957;27;25953;-91
2023/12/29 03:11:44;;;;;;;3.37;1.90;;;;;;;4.06;59.41;100074.06;5302819;27;20583;-92
2023/12/29 03:14:09;;;;;;;2.33;0.40;;;;;;;3.86;59.40;100081.78;5322062;27;20112;-92
2023/12/29 03:16:35;;;;;;;0.57;0.32;;;;;;;4.22;59.41;100073.16;5303372;27;20108;-91
2023/12/29 03:19:00;;;;;;;0.32;0.32;;;;;;;4.01;59.40;100068.88;5303444;27;20108;-91
2023/12/29 03:21:25;;;;;;;1.67;1.55;;;;;;;4.23;59.42;100057.72;5302881;27;20155;-91
2023/12/29 03:23:51;;;;;;;1.77;1.02;;;;;;;3.85;59.39;100069.78;5302944;27;20119;-91
2023/12/29 03:26:16;;;;;;;0.57;0.57;;;;;;;4.07;59.41;100060.31;5321430;27;20088;-90
2023/12/29 03:28:42;;;;;;;1.23;0.80;;;;;;;4.07;59.40;100060.31;5284805;27;20347;-90
2023/12/29 03:31:07;;;;;;;0.88;0.82;;;;;;;4.08;59.40;100068.06;5284401;27;25695;-89
2023/12/29 03:33:32;;;;;;;0.37;0.37;;;;;;;4.03;59.40;100072.34;5303179;27;20108;-91
2023/12/29 03:35:59;;;;;;;0.10;0.10;;;;;;;4.21;59.42;100068.88;5284680;27;25475;-91
2023/12/29 03:38:24;;;;;;;2.20;0.55;;;;;;;4.25;59.41;100076.59;5304257;26;20048;-91
2023/12/29 03:40:49;;;;;;;1.12;0.57;;;;;;;4.30;59.42;100068.88;5302570;27;27190;-90
2023/12/29 03:43:15;;;;;;;4.70;0.73;;;;;;;4.34;59.42;100065.44;5303738;27;20149;-92
2023/12/29 03:45:40;;;;;;;2.03;1.87;;;;;;;4.18;59.41;100067.16;5285190;27;20307;-91
2023/12/29 03:48:06;;;;;;;0.40;0.40;;;;;;;4.26;59.41;100069.75;5304207;27;20877;-90
2023/12/29 03:50:31;;;;;;;1.17;1.02;;;;;;;4.07;59.41;100066.34;5304210;27;20079;-90
2023/12/29 03:52:57;;;;;;;0.30;0.30;;;;;;;4.11;59.41;100068.03;5302582;27;27909;-91
2023/12/29 03:55:22;;;;;;;0.37;0.35;;;;;;;4.13;59.41;100063.75;5303827;27;20425;-91
2023/12/29 03:57:47;;;;;;;1.62;1.52;;;;;;;4.24;59.41;100066.28;5303279;27;20041;-91
2023/12/29 04:00:13;;;;;;;0.40;0.40;;;;;;;4.19;59.41;100052.56;5304513;27;20080;-91
2023/12/29 04:02:39;;;;;;;1.40;1.30;;;;;;;4.28;59.42;100062.88;5284751;27;20163;-91
2023/12/29 04:05:06;;;;;;;0.47;0.47;;;;;;;4.16;59.41;100063.75;5302379;27;24795;-91
2023/12/29 04:07:31;;;;;;;0.10;0.10;;;;;;;4.14;59.41;100065.47;5303219;27;20067;-92
2023/12/29 04:09:57;;;;;;;2.97;0.70;;;;;;;4.15;59.41;100069.75;5284809;27;27395;-92
2023/12/29 04:12:22;;;;;;;1.17;1.08;;;;;;;4.05;59.41;100060.34;5303124;27;27026;-92
2023/12/29 04:14:48;;;;;;;0.00;0.00;;;;;;;4.27;59.42;100051.72;5305515;27;20096;-93
2023/12/29 04:17:14;;;;;;;0.68;0.68;;;;;;;4.26;59.41;100057.72;5285678;27;20075;-94
2023/12/29 04:19:42;;;;;;;1.52;1.42;;;;;;;4.45;59.42;100061.09;5304125;26;20119;-93
2023/12/29 04:22:08;;;;;;;0.32;0.32;;;;;;;4.28;59.42;100068.91;5285162;27;20127;-94
2023/12/29 04:24:34;;;;;;;0.80;0.80;;;;;;;4.14;59.41;100069.75;5303761;27;20052;-92
2023/12/29 04:26:59;;;;;;;0.37;0.37;;;;;;;4.39;59.42;100063.72;5303886;27;20053;-93
2023/12/29 04:29:24;;;;;;;0.13;0.13;;;;;;;4.20;59.40;100074.91;5303534;27;20103;-92
2023/12/29 04:31:50;;;;;;;0.10;0.10;;;;;;;4.31;59.41;100068.88;5285454;27;20091;-92
2023/12/29 04:34:15;;;;;;;2.85;0.90;;;;;;;4.38;59.42;100077.44;5303148;27;20104;-92
2023/12/29 04:36:41;;;;;;;0.20;0.20;;;;;;;4.43;59.43;100085.16;5304874;27;20104;-92
2023/12/29 04:39:08;;;;;;;2.50;1.75;;;;;;;4.36;59.42;100075.75;5285094;27;23652;-92
2023/12/29 04:41:34;;;;;;;1.00;1.00;;;;;;;4.08;59.40;100067.19;5304607;26;20071;-92
2023/12/29 04:44:00;;;;;;;2.78;2.55;;;;;;;4.00;59.40;100068.03;5304330;27;20072;-92
2023/12/29 04:46:25;;;;;;;0.68;0.68;;;;;;;4.27;59.42;100077.47;5304222;27;20108;-91
2023/12/29 04:48:50;;;;;;;1.48;1.37;;;;;;;4.07;59.40;100075.78;5303872;27;20120;-92
2023/12/29 04:51:16;;;;;;;0.65;0.65;;;;;;;3.96;59.40;100083.50;5287825;27;21044;-93
2023/12/29 04:53:41;;;;;;;0.57;0.57;;;;;;;3.82;59.38;100077.50;5284512;27;31439;-92
2023/12/29 04:56:07;;;;;;;2.45;2.25;;;;;;;3.89;59.39;100081.78;5286055;27;20083;-95
2023/12/29 04:58:32;;;;;;;0.10;0.10;;;;;;;3.95;59.39;100074.06;5306078;27;20061;-94
2023/12/29 05:00:57;;;;;;;3.53;0.90;;;;;;;4.29;59.42;100078.34;5324018;27;23298;-96
2023/12/29 05:03:23;;;;;;;0.37;0.37;;;;;;;4.28;59.42;100065.47;5286299;27;20417;-95
2023/12/29 05:05:48;;;;;;;3.17;1.27;;;;;;;4.02;59.40;100078.34;5303617;27;21896;-93
2023/12/29 05:08:14;;;;;;;2.40;1.75;;;;;;;3.87;59.39;100075.78;5285566;27;20080;-94
2023/12/29 05:10:39;;;;;;;2.33;2.12;;;;;;;3.91;59.40;100069.75;5303796;27;20335;-94
2023/12/29 05:13:04;;;;;;;1.55;1.45;;;;;;;3.73;59.38;100072.31;5286162;27;20077;-93
2023/12/29 05:15:30;;;;;;;0.37;0.37;;;;;;;3.70;59.38;100076.62;5304732;27;20058;-93
2023/12/29 05:17:55;;;;;;;0.52;0.50;;;;;;;3.90;59.40;100063.75;5322103;27;20087;-93
2023/12/29 05:20:20;;;;;;;1.30;1.20;;;;;;;3.77;59.39;100062.03;5303353;27;21521;-93
2023/12/29 05:22:46;;;;;;;1.35;1.08;;;;;;;3.98;59.40;100069.75;5284805;27;24714;-93
2023/12/29 05:25:12;;;;;;;1.23;0.22;;;;;;;3.97;59.39;100069.75;5303950;27;20083;-93
2023/12/29 05:27:37;;;;;;;0.45;0.45;;;;;;;3.79;59.39;100080.94;5303376;27;20422;-93
2023/12/29 05:30:03;;;;;;;0.88;0.85;;;;;;;3.86;59.39;100081.78;5303746;27;20080;-95
2023/12/29 05:32:28;;;;;;;2.83;1.67;;;;;;;3.70;59.38;100081.75;5303999;27;20062;-95
2023/12/29 05:34:54;;;;;;;0.03;0.03;;;;;;;3.59;59.37;100090.34;5303239;27;25274;-92
2023/12/29 05:37:19;;;;;;;0.82;0.82;;;;;;;3.68;59.38;100080.91;5304970;27;20056;-93
2023/12/29 05:39:45;;;;;;;0.52;0.52;;;;;;;3.81;59.38;100073.22;5303085;27;20064;-94
2023/12/29 05:42:10;;;;;;;1.80;1.65;;;;;;;3.75;59.38;100084.34;5304230;27;20096;-93
2023/12/29 05:44:37;;;;;;;1.23;1.23;;;;;;;3.63;59.38;100094.63;5305632;27;20077;-92
2023/12/29 05:47:02;;;;;;;0.22;0.22;;;;;;;3.59;59.37;100092.91;5304898;26;20060;-95
2023/12/29 05:49:28;;;;;;;5.28;1.27;;;;;;;3.68;59.38;100088.63;5305151;26;20084;-94
2023/12/29 05:51:53;;;;;;;0.73;0.73;;;;;;;3.78;59.39;100094.63;5323786;27;20079;-96
2023/12/29 05:54:19;;;;;;;0.50;0.50;;;;;;;3.62;59.38;100098.06;5313674;26;20041;-95
2023/12/29 05:56:44;;;;;;;2.05;1.02;;;;;;;3.57;59.37;100092.06;5306386;27;20056;-94
2023/12/29 05:59:10;;;;;;;0.98;0.93;;;;;;;3.60;59.37;100085.19;5309596;27;20077;-95
2023/12/29 06:01:36;;;;;;;0.60;0.60;;;;;;;3.43;59.36;100088.59;5323314;27;20105;-93
2023/12/29 06:04:01;;;;;;;3.65;1.42;;;;;;;3.60;59.38;100084.34;5304757;27;20352;-93
2023/12/29 06:06:26;;;;;;;0.82;0.82;;;;;;;3.59;59.37;100090.34;5304639;27;20465;-94
2023/12/29 06:08:52;;;;;;;0.65;0.65;;;;;;;3.49;59.37;100093.75;5304512;27;20113;-94
2023/12/29 06:11:17;;;;;;;2.17;1.60;;;;;;;3.31;59.36;100098.00;5305172;27;20115;-94
2023/12/29 06:13:43;;;;;;;0.30;0.30;;;;;;;3.32;59.36;100099.72;5307913;27;20073;-95
2023/12/29 06:16:08;;;;;;;1.02;0.98;;;;;;;3.49;59.37;100102.31;5323774;27;20060;-94
2023/12/29 06:18:33;;;;;;;1.25;1.15;;;;;;;3.48;59.37;100110.91;5286520;27;20076;-92
2023/12/29 06:20:59;;;;;;;2.30;1.75;;;;;;;3.41;59.37;100114.31;5304411;27;20048;-92
2023/12/29 06:23:25;;;;;;;1.75;1.27;;;;;;;3.44;59.36;100109.19;5304302;27;20105;-92
2023/12/29 06:25:51;;;;;;;1.20;1.10;;;;;;;3.65;59.38;100111.78;5287284;27;20072;-93
2023/12/29 06:28:16;;;;;;;2.08;1.42;;;;;;;3.41;59.37;100116.03;5304472;27;20099;-92
2023/12/29 06:30:44;;;;;;;0.93;0.93;;;;;;;3.31;59.36;100123.75;5284657;27;25105;-92
2023/12/29 06:33:10;;;;;;;0.40;0.40;;;;;;;3.26;59.36;100122.84;5304462;26;20067;-92
2023/12/29 06:35:35;;;;;;;5.35;3.67;;;;;;;3.38;59.36;100119.47;5304549;27;20060;-93
2023/12/29 06:38:01;;;;;;;1.27;1.17;;;;;;;3.56;59.37;100105.78;5304936;27;20101;-93
2023/12/29 06:40:26;;;;;;;1.15;0.98;;;;;;;3.65;59.38;100100.66;5304465;26;20132;-94
2023/12/29 06:43:23;;;;;;;2.30;2.17;;;;;;;3.49;59.37;100112.63;5303939;27;20449;-93
2023/12/29 06:45:55;;;;;;;0.52;0.52;;;;;;;3.75;59.38;100111.81;5210827;26;20077;-91
2023/12/29 06:48:31;;;;;;;0.30;0.30;;;;;;;3.53;59.38;100118.63;5304567;27;20063;-92
2023/12/29 06:50:56;;;;;;;2.55;2.40;;;;;;;3.58;59.37;100109.22;5305403;27;20049;-91
2023/12/29 06:53:22;;;;;;;1.08;0.85;;;;;;;3.55;59.37;100111.75;5304221;26;20060;-92
2023/12/29 06:55:53;;;;;;;0.90;0.90;;;;;;;3.65;59.38;100114.38;5306756;27;20107;-89
2023/12/29 06:58:19;;;;;;;0.20;0.20;;;;;;;3.62;59.38;100113.50;5305896;27;20038;-93
2023/12/29 07:00:44;;;;;;;5.18;2.08;;;;;;;3.85;59.39;100118.69;5304550;27;20109;-90
2023/12/29 07:03:12;;;;;;;2.97;2.78;;;;;;;3.71;59.38;100121.25;5321957;27;20061;-91
2023/12/29 07:05:38;;;;;;;1.62;1.42;;;;;;;4.08;59.40;100113.56;5304020;27;20065;-93
2023/12/29 07:08:03;;;;;;;2.03;1.52;;;;;;;3.97;59.39;100116.13;5303703;27;20060;-92
2023/12/29 07:10:29;;;;;;;0.65;0.65;;;;;;;3.86;59.39;100117.84;5304101;26;20114;-92
2023/12/29 07:12:54;;;;;;;4.47;3.12;;;;;;;4.10;59.40;100123.00;5304890;27;20084;-92
2023/12/29 07:15:20;;;;;;;3.53;3.20;;;;;;;3.96;59.40;100122.13;5323286;27;20187;-92
2023/12/29 07:17:45;;;;;;;1.37;1.27;;;;;;;4.04;59.40;100117.00;5303743;27;20064;-92
2023/12/29 07:20:11;;;;;;;1.77;1.65;;;;;;;3.99;59.40;100119.53;5304020;26;20065;-93
2023/12/29 07:22:36;;;;;;;3.05;2.83;;;;;;;4.11;59.40;100118.72;5303730;27;20111;-92
2023/12/29 07:25:02;;;;;;;2.75;2.17;;;;;;;4.01;59.40;100122.97;5303888;27;20060;-92
2023/12/29 07:27:27;;;;;;;0.95;0.95;;;;;;;3.93;59.39;100125.56;5303286;27;20056;-92
2023/12/29 07:29:53;;;;;;;2.08;1.85;;;;;;;4.11;59.40;100127.28;5307338;27;20111;-96
2023/12/29 07:32:34;;;;;;;2.58;2.35;;;;;;;4.11;59.40;100134.16;5306537;26;20064;-96
2023/12/29 07:35:02;;;;;;;2.00;1.73;;;;;;;4.16;59.41;100132.44;5333180;26;20124;-95
2023/12/29 07:37:54;;;;;;;4.85;1.27;;;;;;;4.11;59.41;100131.59;5305322;26;20060;-96
2023/12/29 07:40:20;;;;;;;1.00;1.00;;;;;;;4.27;59.42;100125.59;5302166;27;20056;-95
2023/12/29 07:42:52;;;;;;;1.30;1.25;;;;;;;4.14;59.41;100126.44;5310786;27;20071;-95
2023/12/29 07:45:18;;;;;;;3.05;0.70;;;;;;;4.21;59.41;100121.28;5309473;26;20064;-95
2023/12/29 07:47:43;;;;;;;1.20;1.17;;;;;;;4.23;59.41;100116.97;5304854;26;20067;-95
2023/12/29 07:50:09;;;;;;;2.60;2.40;;;;;;;4.23;59.41;100116.13;5303910;27;20112;-96
2023/12/29 07:52:34;;;;;;;0.70;0.70;;;;;;;4.22;59.41;100112.69;5322451;27;20054;-95
2023/12/29 07:55:00;;;;;;;0.37;0.35;;;;;;;4.26;59.41;100114.41;5303989;27;20087;-95
2023/12/29 07:57:25;;;;;;;2.03;1.85;;;;;;;4.29;59.42;100108.41;5306448;26;20601;-94
2023/12/29 07:59:52;;;;;;;1.67;1.52;;;;;;;4.42;59.43;100112.66;5307135;27;21192;-94
2023/12/29 08:02:17;;;;;;;4.60;4.22;;;;;;;4.74;59.45;100107.47;5304409;27;20079;-94
2023/12/29 08:04:45;;;;;;;13.23;7.47;;;;;;;4.76;59.44;100104.87;5304633;27;20457;-95
2023/12/29 08:07:10;;;;;;;0.05;0.05;;;;;;;4.83;59.44;100104.00;5304832;26;20075;-95
2023/12/29 08:09:36;;;;;;;1.20;1.10;;;;;;;4.81;59.45;100111.72;5305291;27;20076;-96
2023/12/29 08:12:02;;;;;;;2.83;2.15;;;;;;;4.46;59.42;100108.34;5327451;26;20048;-95
2023/12/29 08:14:46;;;;;;;3.10;1.87;;;;;;;4.34;59.41;100122.13;5308369;27;20029;-95
2023/12/29 08:17:55;;;;;;;2.17;1.42;;;;;;;4.25;59.41;100129.84;5311041;27;20167;-95
2023/12/29 08:23:47;;;;;;;2.05;1.85;;;;;;;4.33;59.42;100141.03;5323187;26;20040;-91
2023/12/29 08:26:12;;;;;;;4.90;1.95;;;;;;;4.25;59.41;100133.28;5302785;27;20389;-91
2023/12/29 08:28:43;;;;;;;0.37;0.28;;;;;;;4.30;59.42;100133.31;5288672;27;20053;-96
2023/12/29 08:45:42;;;;;;;2.53;1.75;;;;;;;4.79;59.45;100135.81;5334108;26;20052;-96
2023/12/29 09:37:20;;;;;;;2.12;1.42;;;;;;;7.60;59.60;100096.44;5303654;27;20674;-93
2023/12/29 09:40:29;;;;;;;2.45;1.08;;;;;;;7.64;59.61;100089.47;5301730;27;20021;-93
2023/12/29 09:53:22;;;;;;;0.80;0.80;;;;;;;8.61;59.65;100087.87;5110856;27;20029;-93
2023/12/29 09:55:51;;;;;;;1.95;1.80;;;;;;;8.95;59.67;100086.34;5136823;27;20100;-94
2023/12/29 10:40:21;;;;;;;0.68;0.35;;;;;;;10.32;59.76;100036.41;5255972;27;20065;-96
2023/12/29 10:47:32;;;;;;;;;;;;;;;;;;;;;
2023/12/29 11:19:41;;;;;;;0.75;0.75;;;;;;;11.26;59.80;99985.97;5348856;26;21077;-95
2023/12/29 11:23:01;;;;;;;;;;;;;;;;;;;;;
2023/12/29 11:57:33;;;;;;;1.45;1.20;;;;;;;11.24;59.80;99946.09;5316944;26;20399;-95
2023/12/29 12:00:05;;;;;;;4.60;1.52;;;;;;;11.49;59.81;99939.19;5333718;26;20082;-96
2023/12/29 12:02:31;;;;;;;3.65;1.50;;;;;;;11.60;59.83;99934.47;5369698;26;20020;-95
2023/12/29 12:27:07;;;;;;;;;;;;;;;;;;;;;
2023/12/29 12:30:01;;;;;;;;;;;;;;;;;;;;;
2023/12/29 12:33:25;;;;;;;;;;;;;;;;;;;;;
2023/12/29 16:10:03;;;;;;;1.58;1.48;;;;;;;8.28;59.63;99980.38;5308131;26;21745;-94
2023/12/29 16:47:39;;;;;;;0.98;0.98;;;;;;;7.46;59.59;99974.03;5359288;26;20113;-95
2023/12/29 16:50:25;;;;;;;1.58;1.48;;;;;;;7.25;59.59;99976.94;5365885;26;20405;-94
2023/12/29 16:56:07;;;;;;;2.05;1.62;;;;;;;6.99;59.57;99969.56;5353268;26;20059;-96
2023/12/29 18:16:04;;;;;;;1.25;1.25;;;;;;;6.59;59.55;99949.38;5371150;26;20040;-95
2023/12/29 18:18:30;;;;;;;0.57;0.57;;;;;;;6.58;59.55;99951.97;5374675;26;20064;-95
2023/12/29 18:20:57;;;;;;;1.23;1.12;;;;;;;6.28;59.53;99959.25;5339694;26;20024;-94
2023/12/29 18:28:39;;;;;;;2.62;2.42;;;;;;;6.18;59.52;99962.81;5378473;26;20075;-95
2023/12/29 18:31:07;;;;;;;1.42;1.33;;;;;;;6.04;59.51;99977.59;5358277;26;20067;-95
2023/12/29 18:33:35;;;;;;;0.68;0.68;;;;;;;6.12;59.51;99966.28;5334859;26;20104;-95
2023/12/29 18:36:11;;;;;;;2.75;1.92;;;;;;;6.23;59.53;99960.16;5338593;26;20406;-96
2023/12/29 18:43:02;;;;;;;2.17;0.85;;;;;;;6.19;59.52;99959.34;5334478;27;20025;-96
2023/12/29 19:32:34;;;;;;;2.45;1.75;;;;;;;5.51;59.48;99945.34;5331132;26;20061;-93
2023/12/29 19:35:00;;;;;;;3.20;2.58;;;;;;;5.42;59.48;99928.19;5364244;26;20063;-91
2023/12/29 19:37:25;;;;;;;0.77;0.77;;;;;;;5.40;59.48;99934.22;5345884;26;20113;-90
2023/12/29 19:39:51;;;;;;;2.33;2.22;;;;;;;5.57;59.49;99936.66;5327263;26;20088;-90
2023/12/29 19:42:16;;;;;;;1.08;0.98;;;;;;;5.52;59.48;99935.00;5345300;26;20301;-91
2023/12/29 19:44:41;;;;;;;0.55;0.55;;;;;;;5.30;59.47;99936.03;5327195;26;20108;-90
2023/12/29 19:47:07;;;;;;;0.90;0.90;;;;;;;5.22;59.46;99936.09;5327421;26;20067;-92
2023/12/29 19:49:32;;;;;;;2.75;2.42;;;;;;;5.32;59.48;99930.84;5327196;26;20091;-90
2023/12/29 19:51:58;;;;;;;1.37;1.25;;;;;;;5.29;59.47;99941.22;5345380;26;20381;-92
2023/12/29 19:54:24;;;;;;;1.00;1.00;;;;;;;5.48;59.48;99930.72;5346112;26;20180;-91
2023/12/29 19:56:51;;;;;;;2.53;1.52;;;;;;;5.65;59.49;99935.72;5345551;26;20079;-90
2023/12/29 19:59:17;;;;;;;2.83;1.50;;;;;;;5.66;59.49;99929.69;5327283;26;20445;-91
2023/12/29 20:01:43;;;;;;;0.35;0.35;;;;;;;5.64;59.49;99933.16;5326248;26;20049;-90
2023/12/29 20:04:08;;;;;;;3.30;1.48;;;;;;;5.75;59.49;99932.19;5326926;26;20061;-92
2023/12/29 20:06:36;;;;;;;1.08;1.08;;;;;;;5.50;59.48;99936.72;5345163;26;20083;-92
2023/12/29 20:09:01;;;;;;;9.90;4.25;;;;;;;5.59;59.48;99934.94;5346469;26;20048;-90
2023/12/29 20:11:27;;;;;;;1.15;1.08;;;;;;;5.69;59.50;99924.53;5364659;26;20664;-91
2023/12/29 20:13:52;;;;;;;4.62;4.18;;;;;;;5.60;59.48;99932.34;5326759;26;20235;-93
2023/12/29 20:16:22;;;;;;;3.25;1.25;;;;;;;5.74;59.49;99939.97;5327010;26;20048;-91
2023/12/29 20:18:48;;;;;;;0.62;0.52;;;;;;;5.70;59.50;99939.16;5327330;26;20060;-92
2023/12/29 20:21:24;;;;;;;0.55;0.52;;;;;;;5.72;59.49;99934.81;5326379;26;20173;-92
2023/12/29 20:23:50;;;;;;;2.55;2.05;;;;;;;5.64;59.49;99938.31;5328338;26;20079;-92
2023/12/29 20:26:34;;;;;;;2.67;0.85;;;;;;;5.58;59.49;99936.66;5323915;26;20083;-92
2023/12/29 20:29:00;;;;;;;0.77;0.77;;;;;;;5.37;59.47;99929.94;5305631;26;20049;-91
2023/12/29 20:31:27;;;;;;;4.18;1.73;;;;;;;5.23;59.47;99934.38;5306042;26;20045;-91
2023/12/29 20:33:52;;;;;;;0.90;0.85;;;;;;;5.22;59.46;99937.81;5323125;26;20072;-91
2023/12/29 20:36:18;;;;;;;0.55;0.55;;;;;;;5.26;59.47;99939.50;5304851;26;20051;-91
2023/12/29 20:38:44;;;;;;;0.62;0.62;;;;;;;5.27;59.47;99930.03;5305001;26;20090;-90
2023/12/29 20:41:11;;;;;;;4.47;2.40;;;;;;;5.31;59.48;99932.59;5305053;26;20072;-90
2023/12/29 20:43:37;;;;;;;0.73;0.73;;;;;;;5.20;59.47;99931.78;5323162;26;20084;-90
2023/12/29 20:46:03;;;;;;;1.05;1.02;;;;;;;5.05;59.46;99929.34;5304719;26;20060;-90
2023/12/29 20:48:29;;;;;;;1.52;1.35;;;;;;;5.27;59.47;99927.47;5323032;26;20443;-90
2023/12/29 20:50:54;;;;;;;0.10;0.10;;;;;;;5.31;59.48;99922.25;5304874;26;20079;-92
2023/12/29 20:53:19;;;;;;;2.40;2.03;;;;;;;5.38;59.47;99921.34;5304264;26;20068;-91
2023/12/29 20:55:48;;;;;;;0.00;0.00;;;;;;;5.53;59.47;99921.22;5304742;26;20095;-91
2023/12/29 20:58:18;;;;;;;1.55;1.45;;;;;;;5.68;59.50;99912.47;5305309;26;20056;-91
2023/12/29 21:00:44;;;;;;;0.52;0.52;;;;;;;5.74;59.49;99927.06;5323192;26;20052;-91
2023/12/29 21:03:09;;;;;;;2.72;1.45;;;;;;;5.57;59.49;99924.63;5322893;26;20792;-91
2023/12/29 21:05:34;;;;;;;0.60;0.35;;;;;;;5.41;59.48;99921.31;5304272;26;20109;-91
2023/12/29 21:08:00;;;;;;;0.00;0.00;;;;;;;5.36;59.47;99925.66;5322392;26;20134;-91
2023/12/29 21:10:25;;;;;;;0.25;0.25;;;;;;;5.36;59.47;99917.91;5322758;26;20114;-92
2023/12/29 21:12:52;;;;;;;0.62;0.62;;;;;;;5.43;59.48;99908.38;5322836;26;20314;-92
2023/12/29 21:15:17;;;;;;;2.87;0.93;;;;;;;5.46;59.49;99911.81;5341423;26;20061;-89
2023/12/29 21:17:43;;;;;;;2.10;0.98;;;;;;;5.33;59.48;99905.03;5340809;26;20083;-89
2023/12/29 21:20:10;;;;;;;0.05;0.05;;;;;;;5.12;59.46;99906.06;5304334;26;20378;-90
2023/12/29 21:22:36;;;;;;;1.50;1.40;;;;;;;5.31;59.47;99898.19;5305024;26;20091;-91
2023/12/29 21:25:02;;;;;;;0.15;0.15;;;;;;;5.12;59.46;99907.78;5304251;26;20060;-92
2023/12/29 21:27:28;;;;;;;1.73;1.62;;;;;;;5.22;59.47;99894.81;5323549;26;20101;-91
2023/12/29 21:29:53;;;;;;;0.35;0.35;;;;;;;5.38;59.47;99905.84;5304483;26;20056;-90
2023/12/29 21:32:20;;;;;;;0.73;0.73;;;;;;;5.34;59.47;99903.31;5322625;26;20082;-90
2023/12/29 21:34:45;;;;;;;0.10;0.10;;;;;;;5.18;59.47;99913.75;5305786;26;20078;-91
2023/12/29 21:37:11;;;;;;;0.85;0.57;;;;;;;5.19;59.47;99905.12;5323023;26;20076;-91